Time;durP1;ratioP1;P1;durP2;ratioP2;P2;SDS_P1;SDS_P2;PMS_P1;PMS_P2;Temp;Humidity;BMP_temperature;BMP_pressure;BME280_temperature;BME280_humidity;BME280_pressure;Samples;Min_cycle;Max_cycle;Signal;HPM_P1;HPM_P2
2023/12/19 00:01:34;;;;;;;;;;;;;;;;;;5004226;28;19922;-71
2023/12/19 00:04:01;;;;;;;;;;;;;;;;;;5004826;28;19925;-71
2023/12/19 00:06:27;;;;;;;;;;;;;;;;;;5010510;28;19926;-71
2023/12/19 00:08:53;;;;;;;;;;;;;;;;;;5004127;28;20009;-71
2023/12/19 00:11:19;;;;;;;;;;;;;;;;;;5008985;28;20012;-71
2023/12/19 00:13:44;;;;;;;;;;;;;;;;;;5005156;28;20401;-71
2023/12/19 00:16:11;;;;;;;;;;;;;;;;;;5007655;28;19925;-72
2023/12/19 00:18:37;;;;;;;;;;;;;;;;;;5006837;28;19932;-72
2023/12/19 00:21:03;;;;;;;;;;;;;;;;;;5006587;28;19925;-72
2023/12/19 00:23:30;;;;;;;;;;;;;;;;;;5007031;28;19975;-71
2023/12/19 00:25:56;;;;;;;;;;;;;;;;;;4996641;28;20433;-71
2023/12/19 00:28:22;;;;;;;;;;;;;;;;;;5000993;28;19926;-71
2023/12/19 00:30:48;;;;;;;;;;;;;;;;;;5006744;28;19922;-71
2023/12/19 00:33:14;;;;;;;;;;;;;;;;;;5000746;28;20032;-71
2023/12/19 00:35:40;;;;;;;;;;;;;;;;;;5002524;28;20008;-72
2023/12/19 00:38:06;;;;;;;;;;;;;;;;;;5001048;28;20515;-72
2023/12/19 00:40:32;;;;;;;;;;;;;;;;;;5006348;28;19940;-72
2023/12/19 00:42:58;;;;;;;;;;;;;;;;;;5003930;28;20035;-72
2023/12/19 00:45:24;;;;;;;;;;;;;;;;;;5004921;28;19932;-71
2023/12/19 00:47:50;;;;;;;;;;;;;;;;;;5010584;28;20198;-72
2023/12/19 00:50:16;;;;;;;;;;;;;;;;;;5005261;28;19921;-71
2023/12/19 00:52:42;;;;;;;;;;;;;;;;;;5007608;28;19929;-72
2023/12/19 00:55:08;;;;;;;;;;;;;;;;;;5007829;28;19960;-70
2023/12/19 00:57:34;;;;;;;;;;;;;;;;;;5004021;28;20384;-71
2023/12/19 01:00:00;;;;;;;;;;;;;;;;;;5003763;28;20017;-71
2023/12/19 01:02:27;;;;;;;;;;;;;;;;;;5001826;28;20024;-71
2023/12/19 01:04:56;;;;;;;;;;;;;;;;;;5001514;28;19930;-71
2023/12/19 01:07:22;;;;;;;;;;;;;;;;;;5008523;28;19933;-72
2023/12/19 01:09:48;;;;;;;;;;;;;;;;;;5004104;28;19926;-72
2023/12/19 01:12:14;;;;;;;;;;;;;;;;;;5001625;28;20004;-71
2023/12/19 01:14:39;;;;;;;;;;;;;;;;;;5002101;28;20004;-72
2023/12/19 01:17:05;;;;;;;;;;;;;;;;;;5003823;28;19980;-72
2023/12/19 01:19:31;;;;;;;;;;;;;;;;;;5007378;28;20582;-72
2023/12/19 01:21:58;;;;;;;;;;;;;;;;;;5007318;28;19953;-71
2023/12/19 01:24:24;;;;;;;;;;;;;;;;;;5003742;28;19929;-71
2023/12/19 01:26:51;;;;;;;;;;;;;;;;;;5001200;28;20382;-72
2023/12/19 01:29:17;;;;;;;;;;;;;;;;;;4995760;28;19996;-71
2023/12/19 01:31:43;;;;;;;;;;;;;;;;;;5005000;28;20383;-72
2023/12/19 01:34:09;;;;;;;;;;;;;;;;;;5000886;28;20488;-71
2023/12/19 01:36:35;;;;;;;;;;;;;;;;;;5003861;28;20008;-71
2023/12/19 01:39:01;;;;;;;;;;;;;;;;;;5002925;28;19936;-71
2023/12/19 01:41:27;;;;;;;;;;;;;;;;;;5007334;28;20274;-71
2023/12/19 01:43:53;;;;;;;;;;;;;;;;;;5008069;28;19983;-71
2023/12/19 01:46:19;;;;;;;;;;;;;;;;;;5002532;28;19921;-71
2023/12/19 01:48:45;;;;;;;;;;;;;;;;;;5011363;28;20502;-72
2023/12/19 01:51:11;;;;;;;;;;;;;;;;;;5001033;28;19926;-71
2023/12/19 01:53:37;;;;;;;;;;;;;;;;;;5007965;28;21046;-72
2023/12/19 01:56:03;;;;;;;;;;;;;;;;;;5010898;28;20009;-71
2023/12/19 01:58:30;;;;;;;;;;;;;;;;;;5009093;28;19941;-71
2023/12/19 02:00:56;;;;;;;;;;;;;;;;;;5008694;28;19922;-71
2023/12/19 02:03:22;;;;;;;;;;;;;;;;;;5010369;28;19953;-71
2023/12/19 02:05:47;;;;;;;;;;;;;;;;;;5007575;28;19921;-72
2023/12/19 02:08:13;;;;;;;;;;;;;;;;;;5009354;28;19930;-72
2023/12/19 02:10:39;;;;;;;;;;;;;;;;;;5008344;28;19984;-72
2023/12/19 02:13:05;;;;;;;;;;;;;;;;;;5006362;28;20024;-72
2023/12/19 02:15:31;;;;;;;;;;;;;;;;;;5012826;28;19935;-72
2023/12/19 02:17:57;;;;;;;;;;;;;;;;;;5008060;28;19929;-72
2023/12/19 02:20:23;;;;;;;;;;;;;;;;;;5009385;28;20124;-72
2023/12/19 02:22:49;;;;;;;;;;;;;;;;;;5009195;28;19936;-72
2023/12/19 02:25:15;;;;;;;;;;;;;;;;;;5012593;28;19947;-72
2023/12/19 02:27:41;;;;;;;;;;;;;;;;;;5003702;28;19961;-71
2023/12/19 02:30:06;;;;;;;;;;;;;;;;;;5010196;28;19922;-71
2023/12/19 02:32:33;;;;;;;;;;;;;;;;;;5004730;28;19934;-71
2023/12/19 02:34:59;;;;;;;;;;;;;;;;;;5011033;28;19928;-71
2023/12/19 02:37:25;;;;;;;;;;;;;;;;;;5006339;28;20012;-70
2023/12/19 02:39:51;;;;;;;;;;;;;;;;;;5005170;28;19933;-71
2023/12/19 02:42:17;;;;;;;;;;;;;;;;;;5003499;28;19984;-71
2023/12/19 02:44:43;;;;;;;;;;;;;;;;;;5004397;28;19922;-72
2023/12/19 02:47:09;;;;;;;;;;;;;;;;;;5006110;28;20831;-71
2023/12/19 02:49:35;;;;;;;;;;;;;;;;;;5011632;28;19925;-71
2023/12/19 02:52:01;;;;;;;;;;;;;;;;;;5009671;28;19925;-70
2023/12/19 02:54:26;;;;;;;;;;;;;;;;;;5007931;28;20016;-71
2023/12/19 02:56:52;;;;;;;;;;;;;;;;;;5004320;28;19964;-72
2023/12/19 02:59:18;;;;;;;;;;;;;;;;;;5006193;28;19926;-72
2023/12/19 03:01:44;;;;;;;;;;;;;;;;;;5008028;28;19921;-71
2023/12/19 03:04:10;;;;;;;;;;;;;;;;;;5013480;28;20337;-72
2023/12/19 03:06:36;;;;;;;;;;;;;;;;;;5007755;28;20544;-72
2023/12/19 03:09:02;;;;;;;;;;;;;;;;;;5009162;28;19933;-72
2023/12/19 03:11:28;;;;;;;;;;;;;;;;;;5010097;28;19922;-72
2023/12/19 03:13:54;;;;;;;;;;;;;;;;;;5004807;28;20012;-71
2023/12/19 03:16:20;;;;;;;;;;;;;;;;;;5007672;28;20001;-70
2023/12/19 03:18:46;;;;;;;;;;;;;;;;;;5006428;28;19925;-71
2023/12/19 03:21:12;;;;;;;;;;;;;;;;;;5003266;28;19925;-71
2023/12/19 03:23:38;;;;;;;;;;;;;;;;;;5005271;28;19921;-72
2023/12/19 03:26:04;;;;;;;;;;;;;;;;;;5007220;28;19921;-71
2023/12/19 03:28:29;;;;;;;;;;;;;;;;;;5002333;28;20434;-72
2023/12/19 03:30:55;;;;;;;;;;;;;;;;;;5007431;28;19987;-71
2023/12/19 03:33:21;;;;;;;;;;;;;;;;;;5006850;28;19929;-71
2023/12/19 03:35:47;;;;;;;;;;;;;;;;;;5008211;28;19936;-71
2023/12/19 03:38:15;;;;;;;;;;;;;;;;;;5007833;28;19926;-71
2023/12/19 03:40:41;;;;;;;;;;;;;;;;;;4999990;28;19921;-71
2023/12/19 03:43:08;;;;;;;;;;;;;;;;;;5004367;28;19953;-71
2023/12/19 03:45:34;;;;;;;;;;;;;;;;;;5007614;28;19921;-72
2023/12/19 03:47:59;;;;;;;;;;;;;;;;;;5004842;28;19932;-71
2023/12/19 03:50:25;;;;;;;;;;;;;;;;;;5009087;28;20271;-71
2023/12/19 03:52:51;;;;;;;;;;;;;;;;;;5005062;28;19928;-71
2023/12/19 03:55:17;;;;;;;;;;;;;;;;;;5004029;28;19928;-70
2023/12/19 03:57:43;;;;;;;;;;;;;;;;;;5005393;28;19931;-72
2023/12/19 04:00:09;;;;;;;;;;;;;;;;;;5003935;28;19925;-71
2023/12/19 04:02:35;;;;;;;;;;;;;;;;;;5010900;28;19948;-71
2023/12/19 04:05:01;;;;;;;;;;;;;;;;;;5009078;28;20020;-71
2023/12/19 04:07:27;;;;;;;;;;;;;;;;;;5010192;28;19972;-71
2023/12/19 04:09:53;;;;;;;;;;;;;;;;;;5004942;28;19925;-71
2023/12/19 04:12:19;;;;;;;;;;;;;;;;;;5008360;28;19968;-71
2023/12/19 04:14:45;;;;;;;;;;;;;;;;;;4990596;28;19926;-71
2023/12/19 04:17:11;;;;;;;;;;;;;;;;;;5009173;28;19937;-70
2023/12/19 04:19:37;;;;;;;;;;;;;;;;;;5005294;28;19922;-70
2023/12/19 04:22:03;;;;;;;;;;;;;;;;;;5011519;28;19963;-70
2023/12/19 04:24:29;;;;;;;;;;;;;;;;;;5005393;28;21545;-70
2023/12/19 04:26:55;;;;;;;;;;;;;;;;;;5007856;28;19921;-71
2023/12/19 04:29:21;;;;;;;;;;;;;;;;;;5008330;28;20378;-70
2023/12/19 04:31:47;;;;;;;;;;;;;;;;;;5006247;28;19975;-71
2023/12/19 04:34:13;;;;;;;;;;;;;;;;;;5005947;28;19980;-70
2023/12/19 04:36:39;;;;;;;;;;;;;;;;;;5008507;28;19965;-70
2023/12/19 04:39:05;;;;;;;;;;;;;;;;;;5007101;28;19960;-70
2023/12/19 04:41:31;;;;;;;;;;;;;;;;;;5000189;28;19957;-71
2023/12/19 04:43:57;;;;;;;;;;;;;;;;;;5007131;28;19937;-71
2023/12/19 04:46:23;;;;;;;;;;;;;;;;;;5007121;28;19921;-71
2023/12/19 04:48:49;;;;;;;;;;;;;;;;;;5010038;28;19983;-71
2023/12/19 04:51:15;;;;;;;;;;;;;;;;;;5005434;28;20063;-71
2023/12/19 04:53:41;;;;;;;;;;;;;;;;;;5004770;28;20032;-71
2023/12/19 04:56:07;;;;;;;;;;;;;;;;;;5004501;28;19932;-70
2023/12/19 04:58:32;;;;;;;;;;;;;;;;;;5008092;28;19921;-70
2023/12/19 05:00:58;;;;;;;;;;;;;;;;;;5005003;28;19932;-71
2023/12/19 05:03:26;;;;;;;;;;;;;;;;;;5006072;28;19959;-71
2023/12/19 05:05:52;;;;;;;;;;;;;;;;;;5011767;28;19929;-70
2023/12/19 05:08:18;;;;;;;;;;;;;;;;;;5007003;28;20323;-71
2023/12/19 05:10:43;;;;;;;;;;;;;;;;;;5014218;23;19980;-68
2023/12/19 05:13:10;;;;;;;;;;;;;;;;;;5013701;28;19932;-68
2023/12/19 05:15:36;;;;;;;;;;;;;;;;;;5015523;28;19932;-68
2023/12/19 05:18:02;;;;;;;;;;;;;;;;;;5009978;28;20012;-69
2023/12/19 05:20:28;;;;;;;;;;;;;;;;;;5013975;28;19921;-68
2023/12/19 05:22:54;;;;;;;;;;;;;;;;;;5015091;28;20374;-69
2023/12/19 05:25:19;;;;;;;;;;;;;;;;;;5011595;28;20016;-68
2023/12/19 05:27:46;;;;;;;;;;;;;;;;;;5013612;28;19921;-68
2023/12/19 05:30:12;;;;;;;;;;;;;;;;;;5007563;28;19972;-68
2023/12/19 05:32:38;;;;;;;;;;;;;;;;;;5003441;28;19926;-68
2023/12/19 05:35:04;;;;;;;;;;;;;;;;;;5013233;28;20347;-68
2023/12/19 05:37:30;;;;;;;;;;;;;;;;;;5001891;28;19957;-69
2023/12/19 05:39:56;;;;;;;;;;;;;;;;;;5008573;28;20032;-68
2023/12/19 05:42:22;;;;;;;;;;;;;;;;;;5007343;28;19925;-69
2023/12/19 05:44:48;;;;;;;;;;;;;;;;;;5014453;28;19976;-68
2023/12/19 05:47:13;;;;;;;;;;;;;;;;;;5010488;28;19921;-68
2023/12/19 05:49:39;;;;;;;;;;;;;;;;;;5014486;28;19975;-68
2023/12/19 05:52:06;;;;;;;;;;;;;;;;;;5003085;28;19925;-68
2023/12/19 05:54:32;;;;;;;;;;;;;;;;;;5013947;28;19991;-69
2023/12/19 05:56:58;;;;;;;;;;;;;;;;;;5009477;28;20401;-69
2023/12/19 05:59:24;;;;;;;;;;;;;;;;;;5006517;28;19926;-68
2023/12/19 06:01:50;;;;;;;;;;;;;;;;;;5001132;28;19922;-69
2023/12/19 06:04:16;;;;;;;;;;;;;;;;;;5011970;28;19991;-69
2023/12/19 06:06:44;;;;;;;;;;;;;;;;;;5011947;28;20412;-69
2023/12/19 06:09:12;;;;;;;;;;;;;;;;;;5006866;28;20380;-69
2023/12/19 06:11:38;;;;;;;;;;;;;;;;;;5007485;28;20371;-69
2023/12/19 06:14:04;;;;;;;;;;;;;;;;;;5013781;28;19932;-69
2023/12/19 06:16:30;;;;;;;;;;;;;;;;;;4998012;28;19922;-69
2023/12/19 06:18:56;;;;;;;;;;;;;;;;;;5002910;28;19928;-69
2023/12/19 06:21:22;;;;;;;;;;;;;;;;;;5010481;28;19929;-69
2023/12/19 06:23:48;;;;;;;;;;;;;;;;;;5013274;28;19921;-70
2023/12/19 06:26:15;;;;;;;;;;;;;;;;;;5008695;28;19932;-69
2023/12/19 06:28:41;;;;;;;;;;;;;;;;;;5009910;28;19926;-69
2023/12/19 06:31:07;;;;;;;;;;;;;;;;;;5011913;28;19921;-69
2023/12/19 06:33:32;;;;;;;;;;;;;;;;;;5011304;28;19927;-68
2023/12/19 06:35:58;;;;;;;;;;;;;;;;;;5008471;28;19925;-69
2023/12/19 06:38:24;;;;;;;;;;;;;;;;;;5009503;28;19926;-69
2023/12/19 06:40:50;;;;;;;;;;;;;;;;;;5006090;28;19922;-69
2023/12/19 06:43:17;;;;;;;;;;;;;;;;;;5008211;28;19921;-68
2023/12/19 06:45:43;;;;;;;;;;;;;;;;;;5012611;28;19969;-68
2023/12/19 06:48:08;;;;;;;;;;;;;;;;;;5012886;28;19972;-69
2023/12/19 06:50:34;;;;;;;;;;;;;;;;;;5010104;28;19921;-69
2023/12/19 06:53:02;;;;;;;;;;;;;;;;;;5011509;28;20638;-68
2023/12/19 06:55:30;;;;;;;;;;;;;;;;;;5003928;28;19930;-68
2023/12/19 06:57:56;;;;;;;;;;;;;;;;;;5010710;28;20421;-68
2023/12/19 07:00:22;;;;;;;;;;;;;;;;;;5009525;28;19972;-68
2023/12/19 07:02:48;;;;;;;;;;;;;;;;;;5011614;28;20377;-69
2023/12/19 07:05:14;;;;;;;;;;;;;;;;;;5011400;28;19972;-68
2023/12/19 07:07:40;;;;;;;;;;;;;;;;;;5006043;28;19925;-69
2023/12/19 07:10:06;;;;;;;;;;;;;;;;;;5012862;28;19925;-67
2023/12/19 07:12:31;;;;;;;;;;;;;;;;;;5010963;28;19929;-68
2023/12/19 07:14:58;;;;;;;;;;;;;;;;;;5007965;28;20020;-69
2023/12/19 07:17:23;;;;;;;;;;;;;;;;;;5008098;28;20536;-70
2023/12/19 07:19:49;;;;;;;;;;;;;;;;;;5004383;28;19930;-68
2023/12/19 07:22:15;;;;;;;;;;;;;;;;;;5009435;28;19932;-68
2023/12/19 07:24:41;;;;;;;;;;;;;;;;;;5013333;28;19925;-68
2023/12/19 07:27:08;;;;;;;;;;;;;;;;;;5010319;28;19976;-69
2023/12/19 07:29:34;;;;;;;;;;;;;;;;;;5007814;28;19965;-69
2023/12/19 07:32:00;;;;;;;;;;;;;;;;;;5021767;28;19984;-67
2023/12/19 07:34:26;;;;;;;;;;;;;;;;;;5011544;28;20454;-69
2023/12/19 07:36:52;;;;;;;;;;;;;;;;;;5009898;28;19936;-68
2023/12/19 07:39:18;;;;;;;;;;;;;;;;;;5008756;28;19922;-68
2023/12/19 07:41:44;;;;;;;;;;;;;;;;;;5006778;28;20264;-69
2023/12/19 07:44:10;;;;;;;;;;;;;;;;;;5003805;28;19926;-68
2023/12/19 07:46:36;;;;;;;;;;;;;;;;;;5013203;28;19925;-68
2023/12/19 07:49:02;;;;;;;;;;;;;;;;;;5012260;28;19925;-68
2023/12/19 07:51:28;;;;;;;;;;;;;;;;;;5012509;28;19929;-68
2023/12/19 07:53:54;;;;;;;;;;;;;;;;;;5016405;28;19936;-68
2023/12/19 07:56:20;;;;;;;;;;;;;;;;;;5017993;28;20394;-68
2023/12/19 07:58:46;;;;;;;;;;;;;;;;;;4990449;28;20008;-68
2023/12/19 08:01:12;;;;;;;;;;;;;;;;;;5006349;28;19931;-68
2023/12/19 08:03:38;;;;;;;;;;;;;;;;;;5011611;28;20003;-68
2023/12/19 08:06:05;;;;;;;;;;;;;;;;;;5009810;28;19965;-69
2023/12/19 08:08:32;;;;;;;;;;;;;;;;;;5010175;28;20489;-68
2023/12/19 08:10:58;;;;;;;;;;;;;;;;;;5011349;28;19968;-69
2023/12/19 08:13:24;;;;;;;;;;;;;;;;;;5010960;28;20533;-69
2023/12/19 08:15:50;;;;;;;;;;;;;;;;;;5004205;28;19940;-69
2023/12/19 08:18:15;;;;;;;;;;;;;;;;;;5010164;28;19922;-69
2023/12/19 08:20:42;;;;;;;;;;;;;;;;;;5008422;28;19969;-69
2023/12/19 08:23:08;;;;;;;;;;;;;;;;;;4999428;28;19926;-68
2023/12/19 08:25:34;;;;;;;;;;;;;;;;;;5000277;28;19926;-68
2023/12/19 08:28:01;;;;;;;;;;;;;;;;;;5005161;28;19929;-68
2023/12/19 08:30:30;;;;;;;;;;;;;;;;;;4992536;28;19972;-68
2023/12/19 08:32:56;;;;;;;;;;;;;;;;;;5008160;28;19922;-68
2023/12/19 08:35:22;;;;;;;;;;;;;;;;;;4993231;28;19925;-68
2023/12/19 08:37:48;;;;;;;;;;;;;;;;;;5001737;28;19932;-69
2023/12/19 08:40:14;;;;;;;;;;;;;;;;;;4999694;28;19921;-69
2023/12/19 08:42:40;;;;;;;;;;;;;;;;;;5004163;28;20110;-69
2023/12/19 08:45:06;;;;;;;;;;;;;;;;;;5003870;28;20028;-68
2023/12/19 08:47:32;;;;;;;;;;;;;;;;;;5002982;28;20113;-67
2023/12/19 08:49:59;;;;;;;;;;;;;;;;;;4999004;28;19952;-67
2023/12/19 08:52:25;;;;;;;;;;;;;;;;;;5000548;28;20015;-68
2023/12/19 08:54:52;;;;;;;;;;;;;;;;;;5008666;28;19937;-68
2023/12/19 08:57:18;;;;;;;;;;;;;;;;;;5009619;28;20003;-68
2023/12/19 08:59:44;;;;;;;;;;;;;;;;;;5008148;28;19976;-69
2023/12/19 09:02:10;;;;;;;;;;;;;;;;;;5009353;28;19929;-68
2023/12/19 09:04:36;;;;;;;;;;;;;;;;;;5008827;28;19952;-68
2023/12/19 09:07:02;;;;;;;;;;;;;;;;;;5006961;28;19933;-69
2023/12/19 09:09:28;;;;;;;;;;;;;;;;;;5008829;28;20004;-69
2023/12/19 09:11:54;;;;;;;;;;;;;;;;;;5005613;28;19944;-68
2023/12/19 09:14:20;;;;;;;;;;;;;;;;;;5008851;28;19952;-69
2023/12/19 09:16:46;;;;;;;;;;;;;;;;;;5011283;28;19922;-68
2023/12/19 09:19:12;;;;;;;;;;;;;;;;;;5008309;28;20287;-69
2023/12/19 09:21:38;;;;;;;;;;;;;;;;;;5002614;28;20355;-68
2023/12/19 09:24:04;;;;;;;;;;;;;;;;;;5005427;28;19925;-68
2023/12/19 09:26:31;;;;;;;;;;;;;;;;;;5008579;28;19933;-68
2023/12/19 09:28:58;;;;;;;;;;;;;;;;;;5000683;28;19933;-68
2023/12/19 09:31:23;;;;;;;;;;;;;;;;;;5011000;28;19921;-68
2023/12/19 09:33:49;;;;;;;;;;;;;;;;;;5006437;28;19926;-68
2023/12/19 09:36:15;;;;;;;;;;;;;;;;;;5005271;28;20450;-68
2023/12/19 09:38:41;;;;;;;;;;;;;;;;;;5019919;28;19925;-69
2023/12/19 09:41:07;;;;;;;;;;;;;;;;;;5010838;28;19922;-68
2023/12/19 09:43:33;;;;;;;;;;;;;;;;;;5009742;28;19976;-68
2023/12/19 09:45:59;;;;;;;;;;;;;;;;;;5008692;28;19968;-67
2023/12/19 09:48:25;;;;;;;;;;;;;;;;;;5009725;28;19981;-68
2023/12/19 09:50:51;;;;;;;;;;;;;;;;;;5010966;28;19988;-67
2023/12/19 09:53:18;;;;;;;;;;;;;;;;;;5010234;28;19925;-67
2023/12/19 09:55:44;;;;;;;;;;;;;;;;;;5016459;28;19921;-67
2023/12/19 09:58:10;;;;;;;;;;;;;;;;;;5010314;28;20398;-67
2023/12/19 10:00:36;;;;;;;;;;;;;;;;;;5017246;28;19922;-67
2023/12/19 10:03:02;;;;;;;;;;;;;;;;;;5021697;28;20004;-67
2023/12/19 10:05:29;;;;;;;;;;;;;;;;;;5019495;28;19928;-68
2023/12/19 10:07:56;;;;;;;;;;;;;;;;;;5015278;28;19941;-69
2023/12/19 10:10:28;;;;;;;;;;;;;;;;;;5021184;28;19933;-68
2023/12/19 10:12:54;;;;;;;;;;;;;;;;;;5019394;28;20004;-68
2023/12/19 10:15:20;;;;;;;;;;;;;;;;;;5017103;28;19921;-68
2023/12/19 10:17:46;;;;;;;;;;;;;;;;;;5011731;28;19928;-68
2023/12/19 10:20:12;;;;;;;;;;;;;;;;;;5008412;28;20532;-68
2023/12/19 10:22:38;;;;;;;;;;;;;;;;;;5005644;28;19929;-68
2023/12/19 10:25:04;;;;;;;;;;;;;;;;;;5016304;28;19963;-68
2023/12/19 10:27:30;;;;;;;;;;;;;;;;;;5017865;28;19929;-67
2023/12/19 10:29:56;;;;;;;;;;;;;;;;;;5026094;28;19990;-67
2023/12/19 10:32:22;;;;;;;;;;;;;;;;;;5014059;28;20016;-67
2023/12/19 10:34:48;;;;;;;;;;;;;;;;;;5025241;28;20007;-67
2023/12/19 10:37:14;;;;;;;;;;;;;;;;;;5020077;28;20614;-68
2023/12/19 10:39:40;;;;;;;;;;;;;;;;;;5003779;28;19931;-68
2023/12/19 10:42:06;;;;;;;;;;;;;;;;;;5022540;28;20377;-68
2023/12/19 10:44:32;;;;;;;;;;;;;;;;;;5011111;28;20306;-67
2023/12/19 10:46:58;;;;;;;;;;;;;;;;;;5014948;28;19922;-68
2023/12/19 10:49:24;;;;;;;;;;;;;;;;;;5013314;28;19926;-67
2023/12/19 10:51:50;;;;;;;;;;;;;;;;;;5009878;28;19922;-69
2023/12/19 10:54:16;;;;;;;;;;;;;;;;;;5024661;28;19925;-68
2023/12/19 10:56:42;;;;;;;;;;;;;;;;;;5013577;28;20016;-68
2023/12/19 10:59:08;;;;;;;;;;;;;;;;;;5017740;28;19936;-67
2023/12/19 11:01:34;;;;;;;;;;;;;;;;;;5016746;28;19921;-67
2023/12/19 11:04:00;;;;;;;;;;;;;;;;;;5017616;28;20580;-67
2023/12/19 11:06:28;;;;;;;;;;;;;;;;;;5014749;28;21525;-67
2023/12/19 11:08:54;;;;;;;;;;;;;;;;;;5019590;28;19971;-67
2023/12/19 11:11:20;;;;;;;;;;;;;;;;;;5015273;28;20032;-68
2023/12/19 11:13:47;;;;;;;;;;;;;;;;;;5020915;28;20598;-68
2023/12/19 11:16:13;;;;;;;;;;;;;;;;;;5008967;28;20016;-69
2023/12/19 11:18:38;;;;;;;;;;;;;;;;;;5011030;28;20029;-69
2023/12/19 11:21:05;;;;;;;;;;;;;;;;;;5014699;28;20349;-68
2023/12/19 11:23:31;;;;;;;;;;;;;;;;;;5015880;28;19925;-68
2023/12/19 11:25:57;;;;;;;;;;;;;;;;;;5008479;28;19921;-69
2023/12/19 11:28:25;;;;;;;;;;;;;;;;;;5005180;28;19944;-69
2023/12/19 11:30:52;;;;;;;;;;;;;;;;;;5012594;28;19921;-69
2023/12/19 11:33:18;;;;;;;;;;;;;;;;;;5018437;28;19929;-68
2023/12/19 11:35:44;;;;;;;;;;;;;;;;;;5013136;28;19931;-68
2023/12/19 11:38:10;;;;;;;;;;;;;;;;;;5015035;28;20023;-68
2023/12/19 11:40:36;;;;;;;;;;;;;;;;;;5017192;23;19945;-73
2023/12/19 11:43:02;;;;;;;;;;;;;;;;;;4981440;28;20009;-72
2023/12/19 11:45:28;;;;;;;;;;;;;;;;;;4982786;28;19922;-73
2023/12/19 11:47:55;;;;;;;;;;;;;;;;;;4977172;28;19995;-72
2023/12/19 11:50:21;;;;;;;;;;;;;;;;;;4990084;28;20272;-73
2023/12/19 11:52:47;;;;;;;;;;;;;;;;;;4990211;28;19922;-72
2023/12/19 11:55:13;;;;;;;;;;;;;;;;;;4984495;28;19951;-73
2023/12/19 11:57:39;;;;;;;;;;;;;;;;;;4979378;28;19929;-73
2023/12/19 12:00:06;;;;;;;;;;;;;;;;;;4989037;28;20267;-73
2023/12/19 12:02:32;;;;;;;;;;;;;;;;;;4975199;28;19937;-73
2023/12/19 12:04:58;;;;;;;;;;;;;;;;;;4976082;28;19922;-73
2023/12/19 12:07:23;;;;;;;;;;;;;;;;;;4975965;28;19926;-70
2023/12/19 12:09:49;;;;;;;;;;;;;;;;;;4977606;28;19926;-70
2023/12/19 12:12:15;;;;;;;;;;;;;;;;;;4980936;28;20559;-70
2023/12/19 12:14:41;;;;;;;;;;;;;;;;;;4975198;28;19930;-71
2023/12/19 12:17:09;;;;;;;;;;;;;;;;;;4975231;28;19928;-71
2023/12/19 12:19:35;;;;;;;;;;;;;;;;;;4982230;28;19922;-71
2023/12/19 12:22:01;;;;;;;;;;;;;;;;;;4986122;28;20358;-70
2023/12/19 12:24:27;;;;;;;;;;;;;;;;;;4979469;28;19925;-70
2023/12/19 12:26:54;;;;;;;;;;;;;;;;;;4978363;28;19930;-70
2023/12/19 12:29:20;;;;;;;;;;;;;;;;;;4989513;28;20579;-70
2023/12/19 12:31:47;;;;;;;;;;;;;;;;;;4982992;28;19968;-70
2023/12/19 12:34:14;;;;;;;;;;;;;;;;;;4982401;28;19936;-71
2023/12/19 12:36:41;;;;;;;;;;;;;;;;;;4983711;28;20388;-71
2023/12/19 12:39:09;;;;;;;;;;;;;;;;;;4962214;28;19926;-70
2023/12/19 12:41:34;;;;;;;;;;;;;;;;;;4976515;28;19925;-70
2023/12/19 12:44:00;;;;;;;;;;;;;;;;;;4989496;28;19988;-70
2023/12/19 12:46:27;;;;;;;;;;;;;;;;;;4982770;28;20296;-70
2023/12/19 12:48:53;;;;;;;;;;;;;;;;;;4979354;28;20633;-70
2023/12/19 12:51:19;;;;;;;;;;;;;;;;;;4990690;28;19979;-70
2023/12/19 12:53:45;;;;;;;;;;;;;;;;;;4977365;28;19972;-70
2023/12/19 12:56:18;;;;;;;;;;;;;;;;;;4975877;28;19923;-70
2023/12/19 12:58:44;;;;;;;;;;;;;;;;;;4987226;28;20012;-70
2023/12/19 13:01:10;;;;;;;;;;;;;;;;;;4991838;28;20048;-70
2023/12/19 13:03:36;;;;;;;;;;;;;;;;;;4986469;28;19941;-70
2023/12/19 13:06:04;;;;;;;;;;;;;;;;;;4979247;28;20013;-70
2023/12/19 13:08:30;;;;;;;;;;;;;;;;;;4989886;28;19962;-70
2023/12/19 13:10:56;;;;;;;;;;;;;;;;;;4978434;28;20379;-70
2023/12/19 13:13:23;;;;;;;;;;;;;;;;;;4985347;28;19969;-71
2023/12/19 13:15:49;;;;;;;;;;;;;;;;;;4976554;28;19930;-70
2023/12/19 13:18:15;;;;;;;;;;;;;;;;;;4973818;28;19929;-70
2023/12/19 13:20:41;;;;;;;;;;;;;;;;;;4985183;28;19922;-70
2023/12/19 13:23:07;;;;;;;;;;;;;;;;;;4982469;28;19933;-70
2023/12/19 13:25:34;;;;;;;;;;;;;;;;;;4981341;28;19933;-70
2023/12/19 13:28:00;;;;;;;;;;;;;;;;;;4976374;28;19953;-70
2023/12/19 13:30:29;;;;;;;;;;;;;;;;;;4978380;28;19926;-70
2023/12/19 13:32:55;;;;;;;;;;;;;;;;;;4966548;28;19922;-70
2023/12/19 13:35:21;;;;;;;;;;;;;;;;;;4990607;28;19922;-70
2023/12/19 13:37:47;;;;;;;;;;;;;;;;;;4985482;28;20268;-71
2023/12/19 13:40:13;;;;;;;;;;;;;;;;;;4980137;28;19937;-71
2023/12/19 13:42:39;;;;;;;;;;;;;;;;;;4977818;28;19937;-71
2023/12/19 13:45:05;;;;;;;;;;;;;;;;;;4988412;28;19930;-71
2023/12/19 13:47:31;;;;;;;;;;;;;;;;;;4985469;28;19953;-71
2023/12/19 13:49:57;;;;;;;;;;;;;;;;;;4976852;28;19929;-71
2023/12/19 13:52:23;;;;;;;;;;;;;;;;;;4991045;28;19952;-72
2023/12/19 13:54:49;;;;;;;;;;;;;;;;;;4987043;28;20396;-71
2023/12/19 13:57:15;;;;;;;;;;;;;;;;;;4962249;28;19930;-70
2023/12/19 13:59:41;;;;;;;;;;;;;;;;;;4979751;28;20339;-70
2023/12/19 14:02:07;;;;;;;;;;;;;;;;;;4983078;28;20322;-71
2023/12/19 14:04:33;;;;;;;;;;;;;;;;;;4979505;28;19929;-70
2023/12/19 14:06:59;;;;;;;;;;;;;;;;;;4992123;28;20509;-72
2023/12/19 14:09:26;;;;;;;;;;;;;;;;;;4983452;28;20045;-71
2023/12/19 14:11:52;;;;;;;;;;;;;;;;;;4981340;28;19933;-70
2023/12/19 14:14:21;;;;;;;;;;;;;;;;;;4977089;28;20161;-70
2023/12/19 14:16:48;;;;;;;;;;;;;;;;;;4988922;28;19921;-70
2023/12/19 14:19:14;;;;;;;;;;;;;;;;;;4983687;28;20376;-70
2023/12/19 14:21:40;;;;;;;;;;;;;;;;;;4981725;28;19929;-71
2023/12/19 14:24:06;;;;;;;;;;;;;;;;;;4979644;28;19933;-70
2023/12/19 14:26:32;;;;;;;;;;;;;;;;;;4984962;28;19922;-70
2023/12/19 14:28:58;;;;;;;;;;;;;;;;;;4984970;28;19926;-70
2023/12/19 14:31:24;;;;;;;;;;;;;;;;;;4986242;28;19969;-70
2023/12/19 14:33:50;;;;;;;;;;;;;;;;;;4981203;28;20431;-70
2023/12/19 14:36:16;;;;;;;;;;;;;;;;;;4973290;28;20012;-69
2023/12/19 14:38:42;;;;;;;;;;;;;;;;;;4983741;28;19953;-69
2023/12/19 14:41:08;;;;;;;;;;;;;;;;;;4978135;28;19936;-69
2023/12/19 14:43:34;;;;;;;;;;;;;;;;;;4985015;28;19942;-69
2023/12/19 14:46:00;;;;;;;;;;;;;;;;;;4986123;28;19993;-69
2023/12/19 14:48:26;;;;;;;;;;;;;;;;;;4971762;28;20513;-70
2023/12/19 14:50:52;;;;;;;;;;;;;;;;;;4963911;28;20473;-70
2023/12/19 14:53:18;;;;;;;;;;;;;;;;;;4985586;28;20677;-70
2023/12/19 14:55:44;;;;;;;;;;;;;;;;;;4987280;28;19937;-70
2023/12/19 14:58:11;;;;;;;;;;;;;;;;;;4982831;28;19922;-70
2023/12/19 15:00:37;;;;;;;;;;;;;;;;;;4989870;28;19932;-70
2023/12/19 15:03:03;;;;;;;;;;;;;;;;;;4990215;28;19929;-70
2023/12/19 15:05:29;;;;;;;;;;;;;;;;;;4989530;28;19925;-70
2023/12/19 15:07:55;;;;;;;;;;;;;;;;;;4988780;28;19930;-70
2023/12/19 15:10:21;;;;;;;;;;;;;;;;;;4984631;28;19922;-70
2023/12/19 15:12:47;;;;;;;;;;;;;;;;;;4986212;28;19957;-70
2023/12/19 15:15:13;;;;;;;;;;;;;;;;;;4988948;28;19965;-70
2023/12/19 15:17:39;;;;;;;;;;;;;;;;;;4976130;28;20436;-72
2023/12/19 15:20:05;;;;;;;;;;;;;;;;;;4975832;28;19960;-72
2023/12/19 15:22:31;;;;;;;;;;;;;;;;;;4977007;28;19930;-72
2023/12/19 15:24:57;;;;;;;;;;;;;;;;;;4989556;28;20004;-72
2023/12/19 15:27:23;;;;;;;;;;;;;;;;;;4988217;28;20602;-73
2023/12/19 15:29:49;;;;;;;;;;;;;;;;;;4987490;28;19926;-73
2023/12/19 15:32:15;;;;;;;;;;;;;;;;;;4969836;28;19953;-73
2023/12/19 15:34:41;;;;;;;;;;;;;;;;;;4986315;28;20033;-71
2023/12/19 15:37:07;;;;;;;;;;;;;;;;;;4976151;28;20330;-72
2023/12/19 15:39:33;;;;;;;;;;;;;;;;;;4984492;28;20047;-72
2023/12/19 15:41:59;;;;;;;;;;;;;;;;;;4980132;28;20045;-72
2023/12/19 15:44:25;;;;;;;;;;;;;;;;;;4988148;28;19996;-71
2023/12/19 15:46:51;;;;;;;;;;;;;;;;;;4984736;28;20476;-71
2023/12/19 15:49:17;;;;;;;;;;;;;;;;;;4987758;28;19957;-72
2023/12/19 15:51:43;;;;;;;;;;;;;;;;;;4977378;28;19953;-72
2023/12/19 15:54:09;;;;;;;;;;;;;;;;;;4977295;28;20053;-72
2023/12/19 15:56:37;;;;;;;;;;;;;;;;;;4982775;28;20360;-72
2023/12/19 15:59:03;;;;;;;;;;;;;;;;;;4976060;28;19972;-72
2023/12/19 16:01:29;;;;;;;;;;;;;;;;;;4958687;28;20661;-72
2023/12/19 16:03:55;;;;;;;;;;;;;;;;;;4979556;28;19929;-72
2023/12/19 16:06:21;;;;;;;;;;;;;;;;;;4977098;28;19976;-72
2023/12/19 16:08:47;;;;;;;;;;;;;;;;;;4961483;28;19950;-72
2023/12/19 16:11:13;;;;;;;;;;;;;;;;;;4974070;28;20446;-72
2023/12/19 16:13:39;;;;;;;;;;;;;;;;;;4989759;28;20703;-72
2023/12/19 16:16:06;;;;;;;;;;;;;;;;;;4982499;28;19933;-73
2023/12/19 16:18:32;;;;;;;;;;;;;;;;;;4968767;28;20363;-72
2023/12/19 16:20:57;;;;;;;;;;;;;;;;;;4972626;28;19922;-72
2023/12/19 16:23:23;;;;;;;;;;;;;;;;;;4963881;28;20028;-73
2023/12/19 16:25:53;;;;;;;;;;;;;;;;;;4985713;28;20299;-72
2023/12/19 16:28:19;;;;;;;;;;;;;;;;;;4974709;28;19949;-72
2023/12/19 16:30:45;;;;;;;;;;;;;;;;;;4977761;28;19926;-72
2023/12/19 16:33:11;;;;;;;;;;;;;;;;;;4986292;28;19937;-72
2023/12/19 16:35:37;;;;;;;;;;;;;;;;;;4987892;28;20279;-73
2023/12/19 16:38:03;;;;;;;;;;;;;;;;;;4977019;28;19926;-73